sensor_id;sensor_type;location;lat;lon;timestamp;P1;durP1;ratioP1;P2;durP2;ratioP2
15480;SDS011;7842;50.904;6.670;2023-04-06T00:01:47;20.90;;;15.00;;
15480;SDS011;7842;50.904;6.670;2023-04-06T00:04:15;19.23;;;14.77;;
15480;SDS011;7842;50.904;6.670;2023-04-06T00:06:41;20.67;;;15.32;;
15480;SDS011;7842;50.904;6.670;2023-04-06T00:09:07;21.97;;;15.67;;
15480;SDS011;7842;50.904;6.670;2023-04-06T00:11:33;21.08;;;15.88;;
15480;SDS011;7842;50.904;6.670;2023-04-06T00:13:59;19.50;;;15.10;;
15480;SDS011;7842;50.904;6.670;2023-04-06T00:16:25;22.83;;;16.38;;
15480;SDS011;7842;50.904;6.670;2023-04-06T00:18:51;21.27;;;15.73;;
15480;SDS011;7842;50.904;6.670;2023-04-06T00:21:16;21.20;;;16.15;;
15480;SDS011;7842;50.904;6.670;2023-04-06T00:23:42;20.52;;;15.32;;
15480;SDS011;7842;50.904;6.670;2023-04-06T00:26:08;19.42;;;14.73;;
15480;SDS011;7842;50.904;6.670;2023-04-06T00:28:36;21.73;;;15.57;;
15480;SDS011;7842;50.904;6.670;2023-04-06T00:31:02;20.88;;;15.13;;
15480;SDS011;7842;50.904;6.670;2023-04-06T00:33:28;17.40;;;13.70;;
15480;SDS011;7842;50.904;6.670;2023-04-06T00:35:54;20.20;;;14.60;;
15480;SDS011;7842;50.904;6.670;2023-04-06T00:38:20;19.43;;;14.80;;
15480;SDS011;7842;50.904;6.670;2023-04-06T00:40:46;19.77;;;14.68;;
15480;SDS011;7842;50.904;6.670;2023-04-06T00:43:12;19.57;;;14.90;;
15480;SDS011;7842;50.904;6.670;2023-04-06T00:45:39;20.67;;;14.57;;
15480;SDS011;7842;50.904;6.670;2023-04-06T00:48:05;18.02;;;14.43;;
15480;SDS011;7842;50.904;6.670;2023-04-06T00:50:32;19.13;;;14.65;;
15480;SDS011;7842;50.904;6.670;2023-04-06T00:53:00;20.53;;;15.00;;
15480;SDS011;7842;50.904;6.670;2023-04-06T00:55:27;19.93;;;14.53;;
15480;SDS011;7842;50.904;6.670;2023-04-06T00:57:53;21.93;;;14.07;;
15480;SDS011;7842;50.904;6.670;2023-04-06T01:00:20;19.70;;;14.32;;
15480;SDS011;7842;50.904;6.670;2023-04-06T01:02:45;21.23;;;14.20;;
15480;SDS011;7842;50.904;6.670;2023-04-06T01:05:12;20.45;;;14.27;;
15480;SDS011;7842;50.904;6.670;2023-04-06T01:07:38;18.27;;;13.98;;
15480;SDS011;7842;50.904;6.670;2023-04-06T01:10:04;19.90;;;13.48;;
15480;SDS011;7842;50.904;6.670;2023-04-06T01:12:30;18.17;;;13.60;;
15480;SDS011;7842;50.904;6.670;2023-04-06T01:14:56;18.33;;;13.70;;
15480;SDS011;7842;50.904;6.670;2023-04-06T01:17:21;17.87;;;13.40;;
15480;SDS011;7842;50.904;6.670;2023-04-06T01:19:47;18.53;;;13.97;;
15480;SDS011;7842;50.904;6.670;2023-04-06T01:22:18;19.20;;;13.63;;
15480;SDS011;7842;50.904;6.670;2023-04-06T01:24:44;16.83;;;12.93;;
15480;SDS011;7842;50.904;6.670;2023-04-06T01:27:10;17.58;;;13.57;;
15480;SDS011;7842;50.904;6.670;2023-04-06T01:29:36;19.10;;;14.37;;
15480;SDS011;7842;50.904;6.670;2023-04-06T01:32:02;18.08;;;13.93;;
15480;SDS011;7842;50.904;6.670;2023-04-06T01:34:28;17.92;;;13.57;;
15480;SDS011;7842;50.904;6.670;2023-04-06T01:36:53;20.47;;;14.03;;
15480;SDS011;7842;50.904;6.670;2023-04-06T01:39:19;17.52;;;13.50;;
15480;SDS011;7842;50.904;6.670;2023-04-06T01:41:45;18.75;;;13.77;;
15480;SDS011;7842;50.904;6.670;2023-04-06T01:44:16;19.05;;;13.82;;
15480;SDS011;7842;50.904;6.670;2023-04-06T01:46:43;18.98;;;13.98;;
15480;SDS011;7842;50.904;6.670;2023-04-06T01:49:09;19.83;;;13.90;;
15480;SDS011;7842;50.904;6.670;2023-04-06T01:51:35;17.98;;;13.05;;
15480;SDS011;7842;50.904;6.670;2023-04-06T01:54:01;17.80;;;13.55;;
15480;SDS011;7842;50.904;6.670;2023-04-06T01:56:26;18.25;;;13.95;;
15480;SDS011;7842;50.904;6.670;2023-04-06T01:58:52;19.50;;;13.15;;
15480;SDS011;7842;50.904;6.670;2023-04-06T02:01:18;18.43;;;13.63;;
15480;SDS011;7842;50.904;6.670;2023-04-06T02:03:44;20.85;;;14.27;;
15480;SDS011;7842;50.904;6.670;2023-04-06T02:06:10;18.90;;;13.98;;
15480;SDS011;7842;50.904;6.670;2023-04-06T02:08:36;19.02;;;13.73;;
15480;SDS011;7842;50.904;6.670;2023-04-06T02:11:02;17.73;;;13.70;;
15480;SDS011;7842;50.904;6.670;2023-04-06T02:13:28;18.08;;;14.02;;
15480;SDS011;7842;50.904;6.670;2023-04-06T02:15:54;19.30;;;14.23;;
15480;SDS011;7842;50.904;6.670;2023-04-06T02:18:20;19.45;;;14.32;;
15480;SDS011;7842;50.904;6.670;2023-04-06T02:20:46;18.00;;;13.95;;
15480;SDS011;7842;50.904;6.670;2023-04-06T02:23:12;17.80;;;13.88;;
15480;SDS011;7842;50.904;6.670;2023-04-06T02:25:38;17.85;;;14.07;;
15480;SDS011;7842;50.904;6.670;2023-04-06T02:28:04;19.58;;;14.68;;
15480;SDS011;7842;50.904;6.670;2023-04-06T02:30:30;19.58;;;14.23;;
15480;SDS011;7842;50.904;6.670;2023-04-06T02:32:57;20.45;;;14.02;;
15480;SDS011;7842;50.904;6.670;2023-04-06T02:35:27;19.13;;;14.25;;
15480;SDS011;7842;50.904;6.670;2023-04-06T02:37:54;18.75;;;14.40;;
15480;SDS011;7842;50.904;6.670;2023-04-06T02:40:20;18.42;;;13.77;;
15480;SDS011;7842;50.904;6.670;2023-04-06T02:42:46;17.35;;;13.98;;
15480;SDS011;7842;50.904;6.670;2023-04-06T02:45:12;19.63;;;14.83;;
15480;SDS011;7842;50.904;6.670;2023-04-06T02:47:38;20.60;;;14.65;;
15480;SDS011;7842;50.904;6.670;2023-04-06T02:50:04;19.25;;;13.93;;
15480;SDS011;7842;50.904;6.670;2023-04-06T02:52:30;19.70;;;14.68;;
15480;SDS011;7842;50.904;6.670;2023-04-06T02:54:56;18.15;;;13.57;;
15480;SDS011;7842;50.904;6.670;2023-04-06T02:57:22;18.35;;;14.38;;
15480;SDS011;7842;50.904;6.670;2023-04-06T02:59:48;18.23;;;13.30;;
15480;SDS011;7842;50.904;6.670;2023-04-06T03:02:13;18.43;;;14.07;;
15480;SDS011;7842;50.904;6.670;2023-04-06T03:04:39;18.50;;;13.73;;
15480;SDS011;7842;50.904;6.670;2023-04-06T03:07:05;18.67;;;14.02;;
15480;SDS011;7842;50.904;6.670;2023-04-06T03:09:31;19.33;;;14.40;;
15480;SDS011;7842;50.904;6.670;2023-04-06T03:11:57;17.93;;;14.13;;
15480;SDS011;7842;50.904;6.670;2023-04-06T03:14:23;18.98;;;14.05;;
15480;SDS011;7842;50.904;6.670;2023-04-06T03:16:49;17.98;;;13.55;;
15480;SDS011;7842;50.904;6.670;2023-04-06T03:19:15;20.53;;;14.10;;
15480;SDS011;7842;50.904;6.670;2023-04-06T03:21:41;17.70;;;13.53;;
15480;SDS011;7842;50.904;6.670;2023-04-06T03:24:07;17.48;;;13.95;;
15480;SDS011;7842;50.904;6.670;2023-04-06T03:26:33;20.17;;;14.10;;
15480;SDS011;7842;50.904;6.670;2023-04-06T03:28:59;18.90;;;13.55;;
15480;SDS011;7842;50.904;6.670;2023-04-06T03:31:25;16.73;;;13.30;;
15480;SDS011;7842;50.904;6.670;2023-04-06T03:33:51;18.42;;;13.50;;
15480;SDS011;7842;50.904;6.670;2023-04-06T03:36:17;18.23;;;13.13;;
15480;SDS011;7842;50.904;6.670;2023-04-06T03:38:43;17.90;;;13.90;;
15480;SDS011;7842;50.904;6.670;2023-04-06T03:41:09;18.20;;;13.77;;
15480;SDS011;7842;50.904;6.670;2023-04-06T03:43:35;19.15;;;13.80;;
15480;SDS011;7842;50.904;6.670;2023-04-06T03:46:01;19.02;;;13.95;;
15480;SDS011;7842;50.904;6.670;2023-04-06T03:48:30;19.98;;;13.52;;
15480;SDS011;7842;50.904;6.670;2023-04-06T03:50:56;18.75;;;14.27;;
15480;SDS011;7842;50.904;6.670;2023-04-06T03:53:21;19.40;;;14.15;;
15480;SDS011;7842;50.904;6.670;2023-04-06T03:55:47;20.10;;;14.70;;
15480;SDS011;7842;50.904;6.670;2023-04-06T03:58:13;18.77;;;13.98;;
15480;SDS011;7842;50.904;6.670;2023-04-06T04:00:39;19.40;;;14.33;;
15480;SDS011;7842;50.904;6.670;2023-04-06T04:03:04;17.37;;;13.83;;
15480;SDS011;7842;50.904;6.670;2023-04-06T04:05:30;17.80;;;13.80;;
15480;SDS011;7842;50.904;6.670;2023-04-06T04:07:56;19.08;;;14.20;;
15480;SDS011;7842;50.904;6.670;2023-04-06T04:10:22;18.80;;;15.00;;
15480;SDS011;7842;50.904;6.670;2023-04-06T04:12:47;19.30;;;14.02;;
15480;SDS011;7842;50.904;6.670;2023-04-06T04:15:13;18.27;;;13.90;;
15480;SDS011;7842;50.904;6.670;2023-04-06T04:17:39;19.30;;;14.27;;
15480;SDS011;7842;50.904;6.670;2023-04-06T04:20:05;21.27;;;15.23;;
15480;SDS011;7842;50.904;6.670;2023-04-06T04:22:31;19.60;;;14.25;;
15480;SDS011;7842;50.904;6.670;2023-04-06T04:24:57;19.90;;;15.03;;
15480;SDS011;7842;50.904;6.670;2023-04-06T04:27:23;20.35;;;15.07;;
15480;SDS011;7842;50.904;6.670;2023-04-06T04:29:49;20.35;;;14.77;;
15480;SDS011;7842;50.904;6.670;2023-04-06T04:32:15;21.65;;;15.18;;
15480;SDS011;7842;50.904;6.670;2023-04-06T04:34:41;21.17;;;14.85;;
15480;SDS011;7842;50.904;6.670;2023-04-06T04:37:07;20.33;;;15.05;;
15480;SDS011;7842;50.904;6.670;2023-04-06T04:39:33;19.85;;;15.15;;
15480;SDS011;7842;50.904;6.670;2023-04-06T04:41:59;21.40;;;15.30;;
15480;SDS011;7842;50.904;6.670;2023-04-06T04:44:25;20.17;;;15.00;;
15480;SDS011;7842;50.904;6.670;2023-04-06T04:46:51;20.10;;;14.98;;
15480;SDS011;7842;50.904;6.670;2023-04-06T04:49:17;19.80;;;14.93;;
15480;SDS011;7842;50.904;6.670;2023-04-06T04:51:43;20.20;;;15.00;;
15480;SDS011;7842;50.904;6.670;2023-04-06T04:54:09;19.42;;;14.35;;
15480;SDS011;7842;50.904;6.670;2023-04-06T04:56:35;19.60;;;14.65;;
15480;SDS011;7842;50.904;6.670;2023-04-06T04:59:01;18.87;;;14.53;;
15480;SDS011;7842;50.904;6.670;2023-04-06T05:01:27;20.10;;;14.77;;
15480;SDS011;7842;50.904;6.670;2023-04-06T05:03:52;19.10;;;14.50;;
15480;SDS011;7842;50.904;6.670;2023-04-06T05:06:18;19.90;;;14.93;;
15480;SDS011;7842;50.904;6.670;2023-04-06T05:08:44;19.17;;;14.60;;
15480;SDS011;7842;50.904;6.670;2023-04-06T05:11:10;21.20;;;15.10;;
15480;SDS011;7842;50.904;6.670;2023-04-06T05:13:36;21.55;;;15.35;;
15480;SDS011;7842;50.904;6.670;2023-04-06T05:16:02;20.45;;;14.77;;
15480;SDS011;7842;50.904;6.670;2023-04-06T05:18:28;19.00;;;14.65;;
15480;SDS011;7842;50.904;6.670;2023-04-06T05:20:55;19.33;;;14.70;;
15480;SDS011;7842;50.904;6.670;2023-04-06T05:23:21;20.90;;;14.55;;
15480;SDS011;7842;50.904;6.670;2023-04-06T05:25:47;20.42;;;14.73;;
15480;SDS011;7842;50.904;6.670;2023-04-06T05:28:13;18.37;;;14.30;;
15480;SDS011;7842;50.904;6.670;2023-04-06T05:30:40;18.90;;;14.63;;
15480;SDS011;7842;50.904;6.670;2023-04-06T05:33:06;18.67;;;14.70;;
15480;SDS011;7842;50.904;6.670;2023-04-06T05:35:32;20.07;;;14.03;;
15480;SDS011;7842;50.904;6.670;2023-04-06T05:37:57;18.03;;;13.40;;
15480;SDS011;7842;50.904;6.670;2023-04-06T05:40:23;18.48;;;13.52;;
15480;SDS011;7842;50.904;6.670;2023-04-06T05:42:49;18.25;;;13.23;;
15480;SDS011;7842;50.904;6.670;2023-04-06T05:45:15;16.77;;;12.82;;
15480;SDS011;7842;50.904;6.670;2023-04-06T05:47:43;17.75;;;13.35;;
15480;SDS011;7842;50.904;6.670;2023-04-06T05:50:10;17.67;;;12.25;;
15480;SDS011;7842;50.904;6.670;2023-04-06T05:52:36;17.50;;;13.07;;
15480;SDS011;7842;50.904;6.670;2023-04-06T05:55:02;16.23;;;12.37;;
15480;SDS011;7842;50.904;6.670;2023-04-06T05:57:28;16.25;;;12.75;;
15480;SDS011;7842;50.904;6.670;2023-04-06T05:59:54;16.17;;;12.15;;
15480;SDS011;7842;50.904;6.670;2023-04-06T06:02:21;16.65;;;12.52;;
15480;SDS011;7842;50.904;6.670;2023-04-06T06:04:47;17.15;;;12.52;;
15480;SDS011;7842;50.904;6.670;2023-04-06T06:07:13;15.77;;;11.97;;
15480;SDS011;7842;50.904;6.670;2023-04-06T06:09:39;17.35;;;12.00;;
15480;SDS011;7842;50.904;6.670;2023-04-06T06:12:05;16.40;;;11.52;;
15480;SDS011;7842;50.904;6.670;2023-04-06T06:14:33;16.00;;;11.88;;
15480;SDS011;7842;50.904;6.670;2023-04-06T06:16:59;16.60;;;11.07;;
15480;SDS011;7842;50.904;6.670;2023-04-06T06:19:25;15.82;;;11.95;;
15480;SDS011;7842;50.904;6.670;2023-04-06T06:21:51;15.40;;;11.63;;
15480;SDS011;7842;50.904;6.670;2023-04-06T06:24:17;16.20;;;11.70;;
15480;SDS011;7842;50.904;6.670;2023-04-06T06:26:43;15.47;;;11.87;;
15480;SDS011;7842;50.904;6.670;2023-04-06T06:29:08;13.93;;;11.40;;
15480;SDS011;7842;50.904;6.670;2023-04-06T06:31:35;15.70;;;11.50;;
15480;SDS011;7842;50.904;6.670;2023-04-06T06:34:01;16.80;;;11.50;;
15480;SDS011;7842;50.904;6.670;2023-04-06T06:36:27;16.27;;;11.70;;
15480;SDS011;7842;50.904;6.670;2023-04-06T06:38:53;15.27;;;11.33;;
15480;SDS011;7842;50.904;6.670;2023-04-06T06:41:19;15.20;;;11.07;;
15480;SDS011;7842;50.904;6.670;2023-04-06T06:43:44;17.23;;;11.93;;
15480;SDS011;7842;50.904;6.670;2023-04-06T06:46:10;15.43;;;12.20;;
15480;SDS011;7842;50.904;6.670;2023-04-06T06:48:36;16.00;;;11.77;;
15480;SDS011;7842;50.904;6.670;2023-04-06T06:51:02;14.82;;;11.68;;
15480;SDS011;7842;50.904;6.670;2023-04-06T06:53:29;18.83;;;12.05;;
15480;SDS011;7842;50.904;6.670;2023-04-06T06:55:54;14.40;;;11.50;;
15480;SDS011;7842;50.904;6.670;2023-04-06T06:58:21;17.98;;;12.25;;
15480;SDS011;7842;50.904;6.670;2023-04-06T07:00:46;16.20;;;11.87;;
15480;SDS011;7842;50.904;6.670;2023-04-06T07:03:12;17.67;;;11.90;;
15480;SDS011;7842;50.904;6.670;2023-04-06T07:05:38;15.77;;;11.32;;
15480;SDS011;7842;50.904;6.670;2023-04-06T07:08:04;15.52;;;12.05;;
15480;SDS011;7842;50.904;6.670;2023-04-06T07:10:29;14.88;;;12.02;;
15480;SDS011;7842;50.904;6.670;2023-04-06T07:12:55;16.45;;;11.73;;
15480;SDS011;7842;50.904;6.670;2023-04-06T07:15:21;14.88;;;11.82;;
15480;SDS011;7842;50.904;6.670;2023-04-06T07:17:47;15.40;;;11.55;;
15480;SDS011;7842;50.904;6.670;2023-04-06T07:20:13;17.02;;;11.55;;
15480;SDS011;7842;50.904;6.670;2023-04-06T07:22:40;17.60;;;12.55;;
15480;SDS011;7842;50.904;6.670;2023-04-06T07:25:07;17.17;;;11.55;;
15480;SDS011;7842;50.904;6.670;2023-04-06T07:27:33;16.35;;;12.32;;
15480;SDS011;7842;50.904;6.670;2023-04-06T07:29:59;16.20;;;11.83;;
15480;SDS011;7842;50.904;6.670;2023-04-06T07:32:24;16.13;;;11.83;;
15480;SDS011;7842;50.904;6.670;2023-04-06T07:34:51;15.90;;;12.00;;
15480;SDS011;7842;50.904;6.670;2023-04-06T07:37:16;16.77;;;12.90;;
15480;SDS011;7842;50.904;6.670;2023-04-06T07:39:42;17.40;;;13.13;;
15480;SDS011;7842;50.904;6.670;2023-04-06T07:42:07;16.40;;;12.40;;
15480;SDS011;7842;50.904;6.670;2023-04-06T07:44:33;16.75;;;12.25;;
15480;SDS011;7842;50.904;6.670;2023-04-06T07:49:27;16.23;;;12.02;;
15480;SDS011;7842;50.904;6.670;2023-04-06T07:51:53;15.83;;;11.90;;
15480;SDS011;7842;50.904;6.670;2023-04-06T07:54:19;16.83;;;12.03;;
15480;SDS011;7842;50.904;6.670;2023-04-06T07:56:45;16.77;;;12.77;;
15480;SDS011;7842;50.904;6.670;2023-04-06T07:59:10;22.67;;;15.50;;
15480;SDS011;7842;50.904;6.670;2023-04-06T08:01:36;16.63;;;12.57;;
15480;SDS011;7842;50.904;6.670;2023-04-06T08:04:02;16.02;;;11.70;;
15480;SDS011;7842;50.904;6.670;2023-04-06T08:06:28;16.08;;;11.55;;
15480;SDS011;7842;50.904;6.670;2023-04-06T08:08:54;17.50;;;11.88;;
15480;SDS011;7842;50.904;6.670;2023-04-06T08:11:20;18.27;;;11.38;;
15480;SDS011;7842;50.904;6.670;2023-04-06T08:13:45;16.77;;;11.85;;
15480;SDS011;7842;50.904;6.670;2023-04-06T08:16:11;17.33;;;12.20;;
15480;SDS011;7842;50.904;6.670;2023-04-06T08:18:37;15.80;;;12.07;;
15480;SDS011;7842;50.904;6.670;2023-04-06T08:21:02;17.30;;;12.60;;
15480;SDS011;7842;50.904;6.670;2023-04-06T08:23:28;17.27;;;12.50;;
15480;SDS011;7842;50.904;6.670;2023-04-06T08:25:54;19.08;;;13.30;;
15480;SDS011;7842;50.904;6.670;2023-04-06T08:28:20;18.80;;;13.35;;
15480;SDS011;7842;50.904;6.670;2023-04-06T08:30:46;17.73;;;12.98;;
15480;SDS011;7842;50.904;6.670;2023-04-06T08:33:12;18.73;;;14.30;;
15480;SDS011;7842;50.904;6.670;2023-04-06T08:35:38;19.35;;;14.02;;
15480;SDS011;7842;50.904;6.670;2023-04-06T08:38:03;16.00;;;11.63;;
15480;SDS011;7842;50.904;6.670;2023-04-06T08:40:29;17.38;;;11.85;;
15480;SDS011;7842;50.904;6.670;2023-04-06T08:42:56;18.50;;;12.70;;
15480;SDS011;7842;50.904;6.670;2023-04-06T08:45:24;16.88;;;11.63;;
15480;SDS011;7842;50.904;6.670;2023-04-06T08:47:51;18.15;;;12.02;;
15480;SDS011;7842;50.904;6.670;2023-04-06T08:50:19;18.75;;;13.00;;
15480;SDS011;7842;50.904;6.670;2023-04-06T08:52:46;20.92;;;13.38;;
15480;SDS011;7842;50.904;6.670;2023-04-06T08:55:13;22.52;;;14.75;;
15480;SDS011;7842;50.904;6.670;2023-04-06T08:57:39;17.63;;;13.20;;
15480;SDS011;7842;50.904;6.670;2023-04-06T09:00:06;20.17;;;13.95;;
15480;SDS011;7842;50.904;6.670;2023-04-06T09:02:36;16.80;;;12.07;;
15480;SDS011;7842;50.904;6.670;2023-04-06T09:05:03;18.10;;;12.27;;
15480;SDS011;7842;50.904;6.670;2023-04-06T09:07:29;17.08;;;11.77;;
15480;SDS011;7842;50.904;6.670;2023-04-06T09:09:55;16.73;;;12.43;;
15480;SDS011;7842;50.904;6.670;2023-04-06T09:12:28;16.90;;;12.47;;
15480;SDS011;7842;50.904;6.670;2023-04-06T09:14:55;18.80;;;12.77;;
15480;SDS011;7842;50.904;6.670;2023-04-06T09:17:22;17.67;;;12.30;;
15480;SDS011;7842;50.904;6.670;2023-04-06T09:19:49;16.90;;;12.20;;
15480;SDS011;7842;50.904;6.670;2023-04-06T09:22:15;17.02;;;12.35;;
15480;SDS011;7842;50.904;6.670;2023-04-06T09:27:11;18.58;;;13.43;;
15480;SDS011;7842;50.904;6.670;2023-04-06T09:29:38;17.35;;;12.05;;
15480;SDS011;7842;50.904;6.670;2023-04-06T09:32:04;18.10;;;12.15;;
15480;SDS011;7842;50.904;6.670;2023-04-06T09:34:31;17.00;;;12.45;;
15480;SDS011;7842;50.904;6.670;2023-04-06T09:36:58;18.85;;;13.02;;
15480;SDS011;7842;50.904;6.670;2023-04-06T09:39:24;17.90;;;12.70;;
15480;SDS011;7842;50.904;6.670;2023-04-06T09:41:50;17.17;;;12.07;;
15480;SDS011;7842;50.904;6.670;2023-04-06T09:44:17;17.00;;;11.85;;
15480;SDS011;7842;50.904;6.670;2023-04-06T09:46:44;18.17;;;11.15;;
15480;SDS011;7842;50.904;6.670;2023-04-06T09:49:11;16.05;;;10.57;;
15480;SDS011;7842;50.904;6.670;2023-04-06T09:51:38;15.93;;;11.38;;
15480;SDS011;7842;50.904;6.670;2023-04-06T09:54:04;18.17;;;10.98;;
15480;SDS011;7842;50.904;6.670;2023-04-06T09:56:39;15.43;;;11.43;;
15480;SDS011;7842;50.904;6.670;2023-04-06T10:01:54;17.43;;;11.77;;
15480;SDS011;7842;50.904;6.670;2023-04-06T10:07:27;18.88;;;11.73;;
15480;SDS011;7842;50.904;6.670;2023-04-06T10:09:53;18.73;;;11.95;;
15480;SDS011;7842;50.904;6.670;2023-04-06T10:12:20;17.55;;;11.38;;
15480;SDS011;7842;50.904;6.670;2023-04-06T10:14:45;18.97;;;10.93;;
15480;SDS011;7842;50.904;6.670;2023-04-06T10:17:12;19.05;;;11.50;;
15480;SDS011;7842;50.904;6.670;2023-04-06T10:19:52;17.80;;;11.10;;
15480;SDS011;7842;50.904;6.670;2023-04-06T10:22:29;18.70;;;11.13;;
15480;SDS011;7842;50.904;6.670;2023-04-06T10:25:01;15.97;;;10.77;;
15480;SDS011;7842;50.904;6.670;2023-04-06T10:27:28;17.97;;;11.23;;
15480;SDS011;7842;50.904;6.670;2023-04-06T10:29:55;17.50;;;10.40;;
15480;SDS011;7842;50.904;6.670;2023-04-06T10:32:36;17.70;;;10.73;;
15480;SDS011;7842;50.904;6.670;2023-04-06T10:35:06;17.67;;;11.27;;
15480;SDS011;7842;50.904;6.670;2023-04-06T10:40:18;16.58;;;10.60;;
15480;SDS011;7842;50.904;6.670;2023-04-06T10:42:44;15.37;;;10.80;;
15480;SDS011;7842;50.904;6.670;2023-04-06T10:45:30;16.45;;;10.07;;
15480;SDS011;7842;50.904;6.670;2023-04-06T10:47:56;16.77;;;9.93;;
15480;SDS011;7842;50.904;6.670;2023-04-06T10:50:22;20.70;;;11.83;;
15480;SDS011;7842;50.904;6.670;2023-04-06T10:52:58;21.77;;;12.77;;
15480;SDS011;7842;50.904;6.670;2023-04-06T10:55:25;20.45;;;13.07;;
15480;SDS011;7842;50.904;6.670;2023-04-06T10:57:53;20.88;;;12.02;;
15480;SDS011;7842;50.904;6.670;2023-04-06T11:00:19;18.00;;;11.57;;
15480;SDS011;7842;50.904;6.670;2023-04-06T11:02:45;18.77;;;11.20;;
15480;SDS011;7842;50.904;6.670;2023-04-06T11:05:12;17.80;;;10.60;;
15480;SDS011;7842;50.904;6.670;2023-04-06T11:07:39;22.27;;;10.80;;
15480;SDS011;7842;50.904;6.670;2023-04-06T11:10:05;17.90;;;10.63;;
15480;SDS011;7842;50.904;6.670;2023-04-06T11:12:31;19.05;;;10.23;;
15480;SDS011;7842;50.904;6.670;2023-04-06T11:14:58;20.13;;;11.03;;
15480;SDS011;7842;50.904;6.670;2023-04-06T11:17:34;20.50;;;11.10;;
15480;SDS011;7842;50.904;6.670;2023-04-06T11:20:01;16.92;;;11.05;;
15480;SDS011;7842;50.904;6.670;2023-04-06T11:22:27;17.52;;;11.00;;
15480;SDS011;7842;50.904;6.670;2023-04-06T11:25:04;19.77;;;11.00;;
15480;SDS011;7842;50.904;6.670;2023-04-06T11:27:30;20.15;;;11.50;;
15480;SDS011;7842;50.904;6.670;2023-04-06T11:29:57;20.67;;;10.77;;
15480;SDS011;7842;50.904;6.670;2023-04-06T11:32:23;20.92;;;11.40;;
15480;SDS011;7842;50.904;6.670;2023-04-06T11:34:49;20.40;;;11.90;;
15480;SDS011;7842;50.904;6.670;2023-04-06T11:37:15;20.52;;;11.88;;
15480;SDS011;7842;50.904;6.670;2023-04-06T11:39:51;20.38;;;12.40;;
15480;SDS011;7842;50.904;6.670;2023-04-06T11:42:24;17.95;;;11.63;;
15480;SDS011;7842;50.904;6.670;2023-04-06T11:44:51;17.80;;;11.85;;
15480;SDS011;7842;50.904;6.670;2023-04-06T11:47:17;20.33;;;11.93;;
15480;SDS011;7842;50.904;6.670;2023-04-06T11:49:44;17.10;;;11.30;;
15480;SDS011;7842;50.904;6.670;2023-04-06T11:52:23;18.52;;;11.00;;
15480;SDS011;7842;50.904;6.670;2023-04-06T11:54:50;18.70;;;11.80;;
15480;SDS011;7842;50.904;6.670;2023-04-06T11:57:17;20.67;;;11.68;;
15480;SDS011;7842;50.904;6.670;2023-04-06T11:59:43;16.10;;;10.95;;
15480;SDS011;7842;50.904;6.670;2023-04-06T12:02:10;18.13;;;11.00;;
15480;SDS011;7842;50.904;6.670;2023-04-06T12:04:36;16.80;;;10.55;;
15480;SDS011;7842;50.904;6.670;2023-04-06T12:07:03;16.50;;;10.68;;
15480;SDS011;7842;50.904;6.670;2023-04-06T12:09:29;17.33;;;11.15;;
15480;SDS011;7842;50.904;6.670;2023-04-06T12:11:55;18.37;;;11.23;;
15480;SDS011;7842;50.904;6.670;2023-04-06T12:14:21;16.73;;;10.68;;
15480;SDS011;7842;50.904;6.670;2023-04-06T12:16:47;13.00;;;8.50;;
15480;SDS011;7842;50.904;6.670;2023-04-06T12:19:14;11.63;;;7.65;;
15480;SDS011;7842;50.904;6.670;2023-04-06T12:21:40;9.87;;;6.90;;
15480;SDS011;7842;50.904;6.670;2023-04-06T12:24:08;8.10;;;5.75;;
15480;SDS011;7842;50.904;6.670;2023-04-06T12:26:34;10.77;;;6.25;;
15480;SDS011;7842;50.904;6.670;2023-04-06T12:29:02;9.35;;;6.57;;
15480;SDS011;7842;50.904;6.670;2023-04-06T12:31:34;9.82;;;7.55;;
15480;SDS011;7842;50.904;6.670;2023-04-06T12:34:00;15.73;;;12.55;;
15480;SDS011;7842;50.904;6.670;2023-04-06T12:36:28;9.20;;;7.20;;
15480;SDS011;7842;50.904;6.670;2023-04-06T12:38:54;9.82;;;6.93;;
15480;SDS011;7842;50.904;6.670;2023-04-06T12:41:21;10.57;;;7.47;;
15480;SDS011;7842;50.904;6.670;2023-04-06T12:43:48;10.25;;;7.90;;
15480;SDS011;7842;50.904;6.670;2023-04-06T12:46:17;9.33;;;6.97;;
15480;SDS011;7842;50.904;6.670;2023-04-06T12:48:43;10.10;;;7.45;;
15480;SDS011;7842;50.904;6.670;2023-04-06T12:51:09;8.75;;;6.75;;
15480;SDS011;7842;50.904;6.670;2023-04-06T12:53:35;9.65;;;6.60;;
15480;SDS011;7842;50.904;6.670;2023-04-06T12:56:01;9.10;;;6.50;;
15480;SDS011;7842;50.904;6.670;2023-04-06T12:58:28;9.93;;;6.97;;
15480;SDS011;7842;50.904;6.670;2023-04-06T13:00:54;10.68;;;8.38;;
15480;SDS011;7842;50.904;6.670;2023-04-06T13:03:22;10.63;;;7.68;;
15480;SDS011;7842;50.904;6.670;2023-04-06T13:05:51;9.68;;;7.28;;
15480;SDS011;7842;50.904;6.670;2023-04-06T13:08:18;11.30;;;7.70;;
15480;SDS011;7842;50.904;6.670;2023-04-06T13:10:46;12.88;;;7.05;;
15480;SDS011;7842;50.904;6.670;2023-04-06T13:13:12;10.40;;;7.60;;
15480;SDS011;7842;50.904;6.670;2023-04-06T13:15:38;10.52;;;7.60;;
15480;SDS011;7842;50.904;6.670;2023-04-06T13:18:05;10.70;;;7.00;;
15480;SDS011;7842;50.904;6.670;2023-04-06T13:20:31;10.00;;;6.63;;
15480;SDS011;7842;50.904;6.670;2023-04-06T13:22:57;8.18;;;6.30;;
15480;SDS011;7842;50.904;6.670;2023-04-06T13:25:23;9.15;;;6.72;;
15480;SDS011;7842;50.904;6.670;2023-04-06T13:27:49;9.30;;;6.95;;
15480;SDS011;7842;50.904;6.670;2023-04-06T13:30:15;9.02;;;7.10;;
15480;SDS011;7842;50.904;6.670;2023-04-06T13:32:42;9.97;;;7.30;;
15480;SDS011;7842;50.904;6.670;2023-04-06T13:35:08;11.07;;;7.75;;
15480;SDS011;7842;50.904;6.670;2023-04-06T13:37:34;11.05;;;7.95;;
15480;SDS011;7842;50.904;6.670;2023-04-06T13:40:01;11.65;;;8.68;;
15480;SDS011;7842;50.904;6.670;2023-04-06T13:42:27;10.52;;;7.68;;
15480;SDS011;7842;50.904;6.670;2023-04-06T13:44:54;10.73;;;8.13;;
15480;SDS011;7842;50.904;6.670;2023-04-06T13:49:50;11.77;;;8.35;;
15480;SDS011;7842;50.904;6.670;2023-04-06T13:52:17;10.05;;;7.63;;
15480;SDS011;7842;50.904;6.670;2023-04-06T13:54:44;10.70;;;7.30;;
15480;SDS011;7842;50.904;6.670;2023-04-06T13:57:10;10.68;;;7.60;;
15480;SDS011;7842;50.904;6.670;2023-04-06T13:59:37;10.38;;;7.63;;
15480;SDS011;7842;50.904;6.670;2023-04-06T14:02:04;10.90;;;7.47;;
15480;SDS011;7842;50.904;6.670;2023-04-06T14:04:31;9.82;;;6.90;;
15480;SDS011;7842;50.904;6.670;2023-04-06T14:06:57;9.93;;;7.22;;
15480;SDS011;7842;50.904;6.670;2023-04-06T14:09:24;10.55;;;8.10;;
15480;SDS011;7842;50.904;6.670;2023-04-06T14:11:50;11.50;;;8.05;;
15480;SDS011;7842;50.904;6.670;2023-04-06T14:14:16;11.43;;;8.82;;
15480;SDS011;7842;50.904;6.670;2023-04-06T14:16:42;13.38;;;9.38;;
15480;SDS011;7842;50.904;6.670;2023-04-06T14:19:09;11.35;;;8.43;;
15480;SDS011;7842;50.904;6.670;2023-04-06T14:21:37;11.18;;;8.07;;
15480;SDS011;7842;50.904;6.670;2023-04-06T14:24:04;10.27;;;8.07;;
15480;SDS011;7842;50.904;6.670;2023-04-06T14:26:30;9.82;;;7.55;;
15480;SDS011;7842;50.904;6.670;2023-04-06T14:28:57;11.65;;;9.55;;
15480;SDS011;7842;50.904;6.670;2023-04-06T14:31:23;11.60;;;8.65;;
15480;SDS011;7842;50.904;6.670;2023-04-06T14:33:49;11.10;;;8.60;;
15480;SDS011;7842;50.904;6.670;2023-04-06T14:36:15;11.98;;;9.15;;
15480;SDS011;7842;50.904;6.670;2023-04-06T14:38:41;10.87;;;8.53;;
15480;SDS011;7842;50.904;6.670;2023-04-06T14:41:08;11.18;;;8.63;;
15480;SDS011;7842;50.904;6.670;2023-04-06T14:43:40;10.75;;;8.52;;
15480;SDS011;7842;50.904;6.670;2023-04-06T14:46:06;11.05;;;8.23;;
15480;SDS011;7842;50.904;6.670;2023-04-06T14:48:33;10.57;;;8.43;;
15480;SDS011;7842;50.904;6.670;2023-04-06T14:50:59;11.60;;;8.77;;